sensor_id;sensor_type;location;lat;lon;timestamp;temperature;humidity
21207;DHT22;10761;48.532;8.026;2022-07-12T00:01:19;16.30;99.90
21207;DHT22;10761;48.532;8.026;2022-07-12T00:03:45;16.30;99.90
21207;DHT22;10761;48.532;8.026;2022-07-12T00:06:11;16.20;99.90
21207;DHT22;10761;48.532;8.026;2022-07-12T00:08:37;16.10;99.90
21207;DHT22;10761;48.532;8.026;2022-07-12T00:11:03;16.10;99.90
21207;DHT22;10761;48.532;8.026;2022-07-12T00:13:29;15.90;99.90
21207;DHT22;10761;48.532;8.026;2022-07-12T00:15:56;15.90;99.90
21207;DHT22;10761;48.532;8.026;2022-07-12T00:18:22;15.80;99.90
21207;DHT22;10761;48.532;8.026;2022-07-12T00:20:48;15.70;99.90
21207;DHT22;10761;48.532;8.026;2022-07-12T00:23:14;15.60;99.90
21207;DHT22;10761;48.532;8.026;2022-07-12T00:25:40;15.50;99.90
21207;DHT22;10761;48.532;8.026;2022-07-12T00:28:06;15.50;99.90
21207;DHT22;10761;48.532;8.026;2022-07-12T00:30:32;15.50;99.90
21207;DHT22;10761;48.532;8.026;2022-07-12T00:32:58;15.40;99.90
21207;DHT22;10761;48.532;8.026;2022-07-12T00:35:23;15.40;99.90
21207;DHT22;10761;48.532;8.026;2022-07-12T00:37:49;15.40;99.90
21207;DHT22;10761;48.532;8.026;2022-07-12T00:40:15;15.30;99.90
21207;DHT22;10761;48.532;8.026;2022-07-12T00:42:40;15.30;99.90
21207;DHT22;10761;48.532;8.026;2022-07-12T00:45:07;15.30;99.90
21207;DHT22;10761;48.532;8.026;2022-07-12T00:47:37;15.30;99.90
21207;DHT22;10761;48.532;8.026;2022-07-12T00:50:15;15.20;99.90
21207;DHT22;10761;48.532;8.026;2022-07-12T00:52:42;15.20;99.90
21207;DHT22;10761;48.532;8.026;2022-07-12T00:55:09;15.10;99.90
21207;DHT22;10761;48.532;8.026;2022-07-12T00:57:36;15.00;99.90
21207;DHT22;10761;48.532;8.026;2022-07-12T01:00:04;15.00;99.90
21207;DHT22;10761;48.532;8.026;2022-07-12T01:02:31;15.00;99.90
21207;DHT22;10761;48.532;8.026;2022-07-12T01:04:58;14.90;99.90
21207;DHT22;10761;48.532;8.026;2022-07-12T01:07:25;15.00;99.90
21207;DHT22;10761;48.532;8.026;2022-07-12T01:09:55;15.10;99.90
21207;DHT22;10761;48.532;8.026;2022-07-12T01:12:22;15.20;99.90
21207;DHT22;10761;48.532;8.026;2022-07-12T01:14:50;15.30;99.90
21207;DHT22;10761;48.532;8.026;2022-07-12T01:17:24;15.40;99.90
21207;DHT22;10761;48.532;8.026;2022-07-12T01:19:53;15.60;99.90
21207;DHT22;10761;48.532;8.026;2022-07-12T01:22:19;15.80;99.90
21207;DHT22;10761;48.532;8.026;2022-07-12T01:45:32;15.60;99.90
21207;DHT22;10761;48.532;8.026;2022-07-12T01:47:57;15.50;99.90
21207;DHT22;10761;48.532;8.026;2022-07-12T01:50:24;15.30;99.90
21207;DHT22;10761;48.532;8.026;2022-07-12T01:52:51;15.20;99.90
21207;DHT22;10761;48.532;8.026;2022-07-12T01:55:18;15.10;99.90
21207;DHT22;10761;48.532;8.026;2022-07-12T01:57:44;15.10;99.90
21207;DHT22;10761;48.532;8.026;2022-07-12T02:00:11;14.90;99.90
21207;DHT22;10761;48.532;8.026;2022-07-12T02:02:37;14.90;99.90
21207;DHT22;10761;48.532;8.026;2022-07-12T02:05:04;14.80;99.90
21207;DHT22;10761;48.532;8.026;2022-07-12T02:07:31;14.80;99.90
21207;DHT22;10761;48.532;8.026;2022-07-12T02:09:56;14.70;99.90
21207;DHT22;10761;48.532;8.026;2022-07-12T02:16:16;14.60;99.90
21207;DHT22;10761;48.532;8.026;2022-07-12T02:18:41;14.60;99.90
21207;DHT22;10761;48.532;8.026;2022-07-12T02:44:42;14.30;99.90
21207;DHT22;10761;48.532;8.026;2022-07-12T02:47:08;14.20;99.90
21207;DHT22;10761;48.532;8.026;2022-07-12T02:49:34;14.10;99.90
21207;DHT22;10761;48.532;8.026;2022-07-12T02:51:59;14.10;99.90
21207;DHT22;10761;48.532;8.026;2022-07-12T02:54:25;14.10;99.90
21207;DHT22;10761;48.532;8.026;2022-07-12T02:56:50;14.00;99.90
21207;DHT22;10761;48.532;8.026;2022-07-12T02:59:16;14.00;99.90
21207;DHT22;10761;48.532;8.026;2022-07-12T03:01:41;14.00;99.90
21207;DHT22;10761;48.532;8.026;2022-07-12T03:04:07;14.00;99.90
21207;DHT22;10761;48.532;8.026;2022-07-12T03:06:33;13.90;99.90
21207;DHT22;10761;48.532;8.026;2022-07-12T03:08:58;13.80;99.90
21207;DHT22;10761;48.532;8.026;2022-07-12T03:11:24;13.70;99.90
21207;DHT22;10761;48.532;8.026;2022-07-12T03:13:50;13.60;99.90
21207;DHT22;10761;48.532;8.026;2022-07-12T03:16:15;13.70;99.90
21207;DHT22;10761;48.532;8.026;2022-07-12T03:18:41;13.70;99.90
21207;DHT22;10761;48.532;8.026;2022-07-12T03:21:07;13.70;99.90
21207;DHT22;10761;48.532;8.026;2022-07-12T03:23:33;13.60;99.90
21207;DHT22;10761;48.532;8.026;2022-07-12T03:25:58;13.60;99.90
21207;DHT22;10761;48.532;8.026;2022-07-12T03:28:24;13.50;99.90
21207;DHT22;10761;48.532;8.026;2022-07-12T03:30:51;13.50;99.90
21207;DHT22;10761;48.532;8.026;2022-07-12T03:33:16;13.50;99.90
21207;DHT22;10761;48.532;8.026;2022-07-12T03:35:42;13.50;99.90
21207;DHT22;10761;48.532;8.026;2022-07-12T03:38:08;13.40;99.90
21207;DHT22;10761;48.532;8.026;2022-07-12T03:40:33;13.40;99.90
21207;DHT22;10761;48.532;8.026;2022-07-12T03:43:00;13.50;99.90
21207;DHT22;10761;48.532;8.026;2022-07-12T03:45:25;13.40;99.90
21207;DHT22;10761;48.532;8.026;2022-07-12T03:47:51;13.40;99.90
21207;DHT22;10761;48.532;8.026;2022-07-12T03:50:17;13.30;99.90
21207;DHT22;10761;48.532;8.026;2022-07-12T03:52:43;13.30;99.90
21207;DHT22;10761;48.532;8.026;2022-07-12T03:55:10;13.20;99.90
21207;DHT22;10761;48.532;8.026;2022-07-12T03:57:37;13.20;99.90
21207;DHT22;10761;48.532;8.026;2022-07-12T04:00:08;13.20;99.90
21207;DHT22;10761;48.532;8.026;2022-07-12T04:02:37;13.20;99.90
21207;DHT22;10761;48.532;8.026;2022-07-12T04:05:04;13.20;99.90
21207;DHT22;10761;48.532;8.026;2022-07-12T04:07:30;13.20;99.90
21207;DHT22;10761;48.532;8.026;2022-07-12T04:09:56;13.30;99.90
21207;DHT22;10761;48.532;8.026;2022-07-12T04:12:21;13.30;99.90
21207;DHT22;10761;48.532;8.026;2022-07-12T04:14:47;13.40;99.90
21207;DHT22;10761;48.532;8.026;2022-07-12T04:17:12;13.30;99.90
21207;DHT22;10761;48.532;8.026;2022-07-12T04:19:38;13.40;99.90
21207;DHT22;10761;48.532;8.026;2022-07-12T04:22:03;13.40;99.90
21207;DHT22;10761;48.532;8.026;2022-07-12T04:24:29;13.40;99.90
21207;DHT22;10761;48.532;8.026;2022-07-12T04:26:55;13.40;99.90
21207;DHT22;10761;48.532;8.026;2022-07-12T04:29:21;13.50;99.90
21207;DHT22;10761;48.532;8.026;2022-07-12T04:31:47;13.60;99.90
21207;DHT22;10761;48.532;8.026;2022-07-12T04:34:12;13.70;99.90
21207;DHT22;10761;48.532;8.026;2022-07-12T04:36:43;13.90;99.90
21207;DHT22;10761;48.532;8.026;2022-07-12T04:39:09;14.00;99.90
21207;DHT22;10761;48.532;8.026;2022-07-12T04:41:35;14.10;99.90
21207;DHT22;10761;48.532;8.026;2022-07-12T04:44:03;14.30;99.90
21207;DHT22;10761;48.532;8.026;2022-07-12T04:46:29;14.40;99.90
21207;DHT22;10761;48.532;8.026;2022-07-12T04:48:55;14.60;99.90
21207;DHT22;10761;48.532;8.026;2022-07-12T04:51:20;14.70;99.90
21207;DHT22;10761;48.532;8.026;2022-07-12T04:53:46;14.80;99.90
21207;DHT22;10761;48.532;8.026;2022-07-12T04:56:11;14.90;99.90
21207;DHT22;10761;48.532;8.026;2022-07-12T04:58:37;15.10;99.90
21207;DHT22;10761;48.532;8.026;2022-07-12T05:01:03;15.20;99.90
21207;DHT22;10761;48.532;8.026;2022-07-12T05:03:29;15.40;99.90
21207;DHT22;10761;48.532;8.026;2022-07-12T05:05:56;15.40;99.90
21207;DHT22;10761;48.532;8.026;2022-07-12T05:08:21;15.60;99.90
21207;DHT22;10761;48.532;8.026;2022-07-12T05:10:47;15.70;99.90
21207;DHT22;10761;48.532;8.026;2022-07-12T05:13:13;15.80;99.90
21207;DHT22;10761;48.532;8.026;2022-07-12T05:15:39;15.80;99.90
21207;DHT22;10761;48.532;8.026;2022-07-12T05:18:04;15.90;99.90
21207;DHT22;10761;48.532;8.026;2022-07-12T05:20:30;16.00;99.90
21207;DHT22;10761;48.532;8.026;2022-07-12T05:22:55;16.10;99.90
21207;DHT22;10761;48.532;8.026;2022-07-12T05:25:21;16.40;99.90
21207;DHT22;10761;48.532;8.026;2022-07-12T05:27:47;16.50;99.90
21207;DHT22;10761;48.532;8.026;2022-07-12T05:30:12;16.70;99.90
21207;DHT22;10761;48.532;8.026;2022-07-12T05:32:38;16.70;99.90
21207;DHT22;10761;48.532;8.026;2022-07-12T05:35:04;16.90;99.90
21207;DHT22;10761;48.532;8.026;2022-07-12T05:37:30;17.00;99.90
21207;DHT22;10761;48.532;8.026;2022-07-12T05:39:56;17.20;99.90
21207;DHT22;10761;48.532;8.026;2022-07-12T05:42:22;17.30;99.90
21207;DHT22;10761;48.532;8.026;2022-07-12T05:44:48;17.40;99.90
21207;DHT22;10761;48.532;8.026;2022-07-12T05:47:13;17.50;99.90
21207;DHT22;10761;48.532;8.026;2022-07-12T05:49:39;17.70;99.90
21207;DHT22;10761;48.532;8.026;2022-07-12T05:52:05;17.80;99.90
21207;DHT22;10761;48.532;8.026;2022-07-12T05:54:48;18.00;99.90
21207;DHT22;10761;48.532;8.026;2022-07-12T05:57:15;18.20;99.90
21207;DHT22;10761;48.532;8.026;2022-07-12T05:59:41;18.30;99.90
21207;DHT22;10761;48.532;8.026;2022-07-12T06:02:06;18.40;99.90
21207;DHT22;10761;48.532;8.026;2022-07-12T06:04:32;18.50;99.90
21207;DHT22;10761;48.532;8.026;2022-07-12T06:06:58;18.60;99.90
21207;DHT22;10761;48.532;8.026;2022-07-12T06:09:23;18.70;99.90
21207;DHT22;10761;48.532;8.026;2022-07-12T06:11:49;18.80;99.90
21207;DHT22;10761;48.532;8.026;2022-07-12T06:14:14;18.90;99.90
21207;DHT22;10761;48.532;8.026;2022-07-12T06:16:40;19.20;99.90
21207;DHT22;10761;48.532;8.026;2022-07-12T06:19:06;19.40;99.90
21207;DHT22;10761;48.532;8.026;2022-07-12T06:21:31;19.70;99.90
21207;DHT22;10761;48.532;8.026;2022-07-12T06:23:57;19.90;99.90
21207;DHT22;10761;48.532;8.026;2022-07-12T06:26:22;20.20;99.90
21207;DHT22;10761;48.532;8.026;2022-07-12T06:28:48;20.30;99.90
21207;DHT22;10761;48.532;8.026;2022-07-12T06:31:14;20.40;99.90
21207;DHT22;10761;48.532;8.026;2022-07-12T06:33:39;20.60;99.90
21207;DHT22;10761;48.532;8.026;2022-07-12T06:36:05;20.90;99.90
21207;DHT22;10761;48.532;8.026;2022-07-12T06:38:31;21.00;99.90
21207;DHT22;10761;48.532;8.026;2022-07-12T06:40:57;21.20;99.90
21207;DHT22;10761;48.532;8.026;2022-07-12T06:43:22;21.50;99.90
21207;DHT22;10761;48.532;8.026;2022-07-12T06:45:48;21.80;99.90
21207;DHT22;10761;48.532;8.026;2022-07-12T06:48:13;22.10;99.90
21207;DHT22;10761;48.532;8.026;2022-07-12T06:50:39;22.10;99.90
21207;DHT22;10761;48.532;8.026;2022-07-12T06:53:05;22.20;99.90
21207;DHT22;10761;48.532;8.026;2022-07-12T06:55:30;22.40;99.90
21207;DHT22;10761;48.532;8.026;2022-07-12T06:57:56;22.70;99.90
21207;DHT22;10761;48.532;8.026;2022-07-12T07:00:22;23.00;99.90
21207;DHT22;10761;48.532;8.026;2022-07-12T07:02:48;23.10;99.90
21207;DHT22;10761;48.532;8.026;2022-07-12T07:05:14;23.40;99.90
21207;DHT22;10761;48.532;8.026;2022-07-12T07:07:41;23.50;99.90
21207;DHT22;10761;48.532;8.026;2022-07-12T07:10:07;23.50;99.90
21207;DHT22;10761;48.532;8.026;2022-07-12T07:12:33;23.80;99.90
21207;DHT22;10761;48.532;8.026;2022-07-12T07:14:58;24.10;99.90
21207;DHT22;10761;48.532;8.026;2022-07-12T07:17:24;24.30;99.90
21207;DHT22;10761;48.532;8.026;2022-07-12T07:19:49;23.70;99.90
21207;DHT22;10761;48.532;8.026;2022-07-12T07:22:15;23.70;99.90
21207;DHT22;10761;48.532;8.026;2022-07-12T07:24:41;23.90;99.90
21207;DHT22;10761;48.532;8.026;2022-07-12T07:27:07;24.00;99.90
21207;DHT22;10761;48.532;8.026;2022-07-12T07:29:33;24.10;99.90
21207;DHT22;10761;48.532;8.026;2022-07-12T07:32:18;24.00;99.90
21207;DHT22;10761;48.532;8.026;2022-07-12T07:34:43;24.50;99.90
21207;DHT22;10761;48.532;8.026;2022-07-12T07:37:10;24.90;99.90
21207;DHT22;10761;48.532;8.026;2022-07-12T07:39:36;25.10;99.90
21207;DHT22;10761;48.532;8.026;2022-07-12T07:42:02;25.20;99.90
21207;DHT22;10761;48.532;8.026;2022-07-12T07:44:27;25.60;99.90
21207;DHT22;10761;48.532;8.026;2022-07-12T07:46:53;25.60;99.90
21207;DHT22;10761;48.532;8.026;2022-07-12T07:49:19;25.80;99.90
21207;DHT22;10761;48.532;8.026;2022-07-12T07:51:44;25.60;99.90
21207;DHT22;10761;48.532;8.026;2022-07-12T07:54:10;25.40;99.90
21207;DHT22;10761;48.532;8.026;2022-07-12T07:56:35;25.70;99.90
21207;DHT22;10761;48.532;8.026;2022-07-12T07:59:01;26.10;99.90
21207;DHT22;10761;48.532;8.026;2022-07-12T08:01:27;26.50;99.90
21207;DHT22;10761;48.532;8.026;2022-07-12T08:04:15;26.20;99.90
21207;DHT22;10761;48.532;8.026;2022-07-12T08:06:41;26.10;99.90
21207;DHT22;10761;48.532;8.026;2022-07-12T08:09:07;25.90;99.90
21207;DHT22;10761;48.532;8.026;2022-07-12T08:11:34;26.00;99.90
21207;DHT22;10761;48.532;8.026;2022-07-12T08:14:00;25.90;99.90
21207;DHT22;10761;48.532;8.026;2022-07-12T08:16:26;25.90;99.90
21207;DHT22;10761;48.532;8.026;2022-07-12T08:18:52;26.00;99.90
21207;DHT22;10761;48.532;8.026;2022-07-12T08:21:18;26.60;99.90
21207;DHT22;10761;48.532;8.026;2022-07-12T08:23:44;26.80;99.90
21207;DHT22;10761;48.532;8.026;2022-07-12T08:26:09;27.00;99.90
21207;DHT22;10761;48.532;8.026;2022-07-12T08:28:35;27.00;99.90
21207;DHT22;10761;48.532;8.026;2022-07-12T08:31:01;26.50;99.90
21207;DHT22;10761;48.532;8.026;2022-07-12T08:33:26;26.70;99.90
21207;DHT22;10761;48.532;8.026;2022-07-12T08:35:52;26.40;99.90
21207;DHT22;10761;48.532;8.026;2022-07-12T08:38:17;26.10;99.90
21207;DHT22;10761;48.532;8.026;2022-07-12T08:40:43;26.00;99.90
21207;DHT22;10761;48.532;8.026;2022-07-12T08:43:09;26.30;99.90
21207;DHT22;10761;48.532;8.026;2022-07-12T08:45:35;26.50;99.90
21207;DHT22;10761;48.532;8.026;2022-07-12T08:48:01;27.20;99.90
21207;DHT22;10761;48.532;8.026;2022-07-12T08:50:27;27.40;99.90
21207;DHT22;10761;48.532;8.026;2022-07-12T08:52:54;27.70;99.90
21207;DHT22;10761;48.532;8.026;2022-07-12T08:57:47;28.20;99.90
21207;DHT22;10761;48.532;8.026;2022-07-12T09:00:13;28.00;99.90
21207;DHT22;10761;48.532;8.026;2022-07-12T09:02:53;28.40;99.90
21207;DHT22;10761;48.532;8.026;2022-07-12T09:05:30;28.50;99.90
21207;DHT22;10761;48.532;8.026;2022-07-12T09:08:09;28.10;99.90
21207;DHT22;10761;48.532;8.026;2022-07-12T09:13:20;27.40;99.90
21207;DHT22;10761;48.532;8.026;2022-07-12T09:15:46;27.70;99.90
21207;DHT22;10761;48.532;8.026;2022-07-12T09:18:16;27.90;99.90
21207;DHT22;10761;48.532;8.026;2022-07-12T09:20:52;27.90;99.90
21207;DHT22;10761;48.532;8.026;2022-07-12T09:23:18;27.90;99.90
21207;DHT22;10761;48.532;8.026;2022-07-12T09:25:45;28.20;99.90
21207;DHT22;10761;48.532;8.026;2022-07-12T09:28:11;28.30;99.90
21207;DHT22;10761;48.532;8.026;2022-07-12T09:30:50;27.90;99.90
21207;DHT22;10761;48.532;8.026;2022-07-12T09:33:19;27.50;99.90
21207;DHT22;10761;48.532;8.026;2022-07-12T09:36:05;27.60;99.90
21207;DHT22;10761;48.532;8.026;2022-07-12T09:38:38;27.70;99.90
21207;DHT22;10761;48.532;8.026;2022-07-12T09:41:06;27.40;99.90
21207;DHT22;10761;48.532;8.026;2022-07-12T09:43:33;27.40;99.90
21207;DHT22;10761;48.532;8.026;2022-07-12T09:45:59;27.90;99.90
21207;DHT22;10761;48.532;8.026;2022-07-12T09:48:29;28.50;99.90
21207;DHT22;10761;48.532;8.026;2022-07-12T09:50:56;28.60;99.90
21207;DHT22;10761;48.532;8.026;2022-07-12T09:53:30;27.90;99.90
21207;DHT22;10761;48.532;8.026;2022-07-12T09:55:57;27.50;99.90
21207;DHT22;10761;48.532;8.026;2022-07-12T09:58:26;27.50;99.90
21207;DHT22;10761;48.532;8.026;2022-07-12T10:00:53;27.90;99.90
21207;DHT22;10761;48.532;8.026;2022-07-12T10:03:23;28.00;99.90
21207;DHT22;10761;48.532;8.026;2022-07-12T10:05:52;28.10;99.90
21207;DHT22;10761;48.532;8.026;2022-07-12T10:08:20;28.50;99.90
21207;DHT22;10761;48.532;8.026;2022-07-12T10:10:47;28.70;99.90
21207;DHT22;10761;48.532;8.026;2022-07-12T10:13:14;28.40;99.90
21207;DHT22;10761;48.532;8.026;2022-07-12T10:15:40;28.30;99.90
21207;DHT22;10761;48.532;8.026;2022-07-12T10:18:20;28.10;99.90
21207;DHT22;10761;48.532;8.026;2022-07-12T10:20:47;28.10;99.90
21207;DHT22;10761;48.532;8.026;2022-07-12T10:25:44;28.50;99.90
21207;DHT22;10761;48.532;8.026;2022-07-12T10:28:10;28.80;99.90
21207;DHT22;10761;48.532;8.026;2022-07-12T10:30:44;28.80;99.90
21207;DHT22;10761;48.532;8.026;2022-07-12T10:33:22;28.40;99.90
21207;DHT22;10761;48.532;8.026;2022-07-12T10:36:07;28.40;99.90
21207;DHT22;10761;48.532;8.026;2022-07-12T10:38:34;28.80;99.90
21207;DHT22;10761;48.532;8.026;2022-07-12T10:41:19;29.30;99.90
21207;DHT22;10761;48.532;8.026;2022-07-12T10:43:45;29.50;99.90
21207;DHT22;10761;48.532;8.026;2022-07-12T10:46:30;29.30;99.90
21207;DHT22;10761;48.532;8.026;2022-07-12T10:49:29;29.40;99.90
21207;DHT22;10761;48.532;8.026;2022-07-12T10:54:36;29.00;99.90
21207;DHT22;10761;48.532;8.026;2022-07-12T10:57:02;29.30;99.90
21207;DHT22;10761;48.532;8.026;2022-07-12T10:59:29;29.50;99.90
21207;DHT22;10761;48.532;8.026;2022-07-12T11:01:56;29.50;99.90
21207;DHT22;10761;48.532;8.026;2022-07-12T11:04:22;29.30;99.90
21207;DHT22;10761;48.532;8.026;2022-07-12T11:06:48;29.50;99.90
21207;DHT22;10761;48.532;8.026;2022-07-12T11:09:16;29.60;99.90
21207;DHT22;10761;48.532;8.026;2022-07-12T11:11:48;29.30;99.90
21207;DHT22;10761;48.532;8.026;2022-07-12T11:14:24;29.10;99.90
21207;DHT22;10761;48.532;8.026;2022-07-12T11:16:51;28.80;99.90
21207;DHT22;10761;48.532;8.026;2022-07-12T11:19:25;28.50;99.90
21207;DHT22;10761;48.532;8.026;2022-07-12T11:21:52;28.60;99.90
21207;DHT22;10761;48.532;8.026;2022-07-12T11:24:29;28.60;99.90
21207;DHT22;10761;48.532;8.026;2022-07-12T11:26:55;28.90;99.90
21207;DHT22;10761;48.532;8.026;2022-07-12T11:29:21;29.10;99.90
21207;DHT22;10761;48.532;8.026;2022-07-12T11:31:48;29.50;99.90
21207;DHT22;10761;48.532;8.026;2022-07-12T11:34:24;29.80;99.90
21207;DHT22;10761;48.532;8.026;2022-07-12T11:36:58;30.20;99.90
21207;DHT22;10761;48.532;8.026;2022-07-12T11:39:33;29.70;99.90
21207;DHT22;10761;48.532;8.026;2022-07-12T11:42:00;29.60;99.90
21207;DHT22;10761;48.532;8.026;2022-07-12T11:44:42;29.80;99.90
21207;DHT22;10761;48.532;8.026;2022-07-12T11:47:09;29.90;99.90
21207;DHT22;10761;48.532;8.026;2022-07-12T11:49:35;29.80;99.90
21207;DHT22;10761;48.532;8.026;2022-07-12T11:52:00;29.60;99.90
21207;DHT22;10761;48.532;8.026;2022-07-12T11:54:26;29.60;99.90
21207;DHT22;10761;48.532;8.026;2022-07-12T11:57:09;29.70;99.90
21207;DHT22;10761;48.532;8.026;2022-07-12T11:59:35;30.00;99.90
21207;DHT22;10761;48.532;8.026;2022-07-12T12:02:06;30.30;99.90
21207;DHT22;10761;48.532;8.026;2022-07-12T12:04:52;30.30;99.90
21207;DHT22;10761;48.532;8.026;2022-07-12T12:07:20;29.80;99.90
21207;DHT22;10761;48.532;8.026;2022-07-12T12:15:08;29.20;99.90
21207;DHT22;10761;48.532;8.026;2022-07-12T12:17:34;29.50;99.90
21207;DHT22;10761;48.532;8.026;2022-07-12T12:20:18;30.00;99.90
21207;DHT22;10761;48.532;8.026;2022-07-12T12:22:46;29.80;99.90
21207;DHT22;10761;48.532;8.026;2022-07-12T12:25:14;30.20;99.90
21207;DHT22;10761;48.532;8.026;2022-07-12T12:27:48;30.80;99.90
21207;DHT22;10761;48.532;8.026;2022-07-12T12:30:16;30.30;99.80
21207;DHT22;10761;48.532;8.026;2022-07-12T12:32:53;29.70;99.90
21207;DHT22;10761;48.532;8.026;2022-07-12T12:35:36;29.90;99.90
21207;DHT22;10761;48.532;8.026;2022-07-12T12:38:03;30.10;99.90
21207;DHT22;10761;48.532;8.026;2022-07-12T12:40:30;29.80;99.90
21207;DHT22;10761;48.532;8.026;2022-07-12T12:43:14;30.30;99.90
21207;DHT22;10761;48.532;8.026;2022-07-12T12:45:55;30.80;99.90
21207;DHT22;10761;48.532;8.026;2022-07-12T12:48:26;31.50;98.70
21207;DHT22;10761;48.532;8.026;2022-07-12T12:50:53;31.40;98.30
21207;DHT22;10761;48.532;8.026;2022-07-12T12:53:25;30.90;97.80
21207;DHT22;10761;48.532;8.026;2022-07-12T12:55:51;31.10;98.70
21207;DHT22;10761;48.532;8.026;2022-07-12T12:58:18;31.40;98.80
21207;DHT22;10761;48.532;8.026;2022-07-12T13:00:47;31.70;97.10
21207;DHT22;10761;48.532;8.026;2022-07-12T13:03:15;31.90;95.70
21207;DHT22;10761;48.532;8.026;2022-07-12T13:05:43;31.80;96.60
21207;DHT22;10761;48.532;8.026;2022-07-12T13:08:09;31.70;96.50
21207;DHT22;10761;48.532;8.026;2022-07-12T13:10:36;31.40;95.40
21207;DHT22;10761;48.532;8.026;2022-07-12T13:13:03;31.10;97.30
21207;DHT22;10761;48.532;8.026;2022-07-12T13:15:29;30.70;96.70
21207;DHT22;10761;48.532;8.026;2022-07-12T13:17:55;31.10;96.40
21207;DHT22;10761;48.532;8.026;2022-07-12T13:20:23;31.50;96.30
21207;DHT22;10761;48.532;8.026;2022-07-12T13:22:49;31.80;95.50
21207;DHT22;10761;48.532;8.026;2022-07-12T13:25:15;32.00;95.10
21207;DHT22;10761;48.532;8.026;2022-07-12T13:27:41;32.40;94.70
21207;DHT22;10761;48.532;8.026;2022-07-12T13:30:09;31.90;94.60
21207;DHT22;10761;48.532;8.026;2022-07-12T13:32:35;31.60;94.70
21207;DHT22;10761;48.532;8.026;2022-07-12T13:35:02;31.50;94.00
21207;DHT22;10761;48.532;8.026;2022-07-12T13:37:28;31.30;94.50
21207;DHT22;10761;48.532;8.026;2022-07-12T13:39:54;31.30;95.00
21207;DHT22;10761;48.532;8.026;2022-07-12T13:42:49;31.70;94.40
21207;DHT22;10761;48.532;8.026;2022-07-12T13:45:17;31.60;94.30
21207;DHT22;10761;48.532;8.026;2022-07-12T13:47:44;31.20;94.00
21207;DHT22;10761;48.532;8.026;2022-07-12T13:50:12;31.30;95.10
21207;DHT22;10761;48.532;8.026;2022-07-12T13:52:38;31.50;93.80
21207;DHT22;10761;48.532;8.026;2022-07-12T13:55:06;31.70;94.50
21207;DHT22;10761;48.532;8.026;2022-07-12T13:57:34;31.80;94.70
21207;DHT22;10761;48.532;8.026;2022-07-12T14:00:00;31.60;92.70
21207;DHT22;10761;48.532;8.026;2022-07-12T14:02:26;31.50;92.00
21207;DHT22;10761;48.532;8.026;2022-07-12T14:04:52;31.70;93.00
21207;DHT22;10761;48.532;8.026;2022-07-12T14:07:18;31.90;92.60
21207;DHT22;10761;48.532;8.026;2022-07-12T14:09:44;31.90;91.80
21207;DHT22;10761;48.532;8.026;2022-07-12T14:12:10;31.60;91.50
21207;DHT22;10761;48.532;8.026;2022-07-12T14:14:36;31.40;92.30
21207;DHT22;10761;48.532;8.026;2022-07-12T14:17:21;31.30;92.10
21207;DHT22;10761;48.532;8.026;2022-07-12T14:19:47;31.60;92.10
21207;DHT22;10761;48.532;8.026;2022-07-12T14:22:13;31.60;93.00
21207;DHT22;10761;48.532;8.026;2022-07-12T14:24:38;31.70;92.10
21207;DHT22;10761;48.532;8.026;2022-07-12T14:27:04;31.50;91.90
21207;DHT22;10761;48.532;8.026;2022-07-12T14:29:31;30.90;92.40
21207;DHT22;10761;48.532;8.026;2022-07-12T14:31:57;30.70;92.20
21207;DHT22;10761;48.532;8.026;2022-07-12T14:34:23;30.70;93.10
21207;DHT22;10761;48.532;8.026;2022-07-12T14:36:49;31.10;92.60
21207;DHT22;10761;48.532;8.026;2022-07-12T14:39:15;31.60;91.80
21207;DHT22;10761;48.532;8.026;2022-07-12T14:41:41;32.10;91.90
21207;DHT22;10761;48.532;8.026;2022-07-12T14:44:07;31.90;91.10
21207;DHT22;10761;48.532;8.026;2022-07-12T14:46:33;31.90;90.00
21207;DHT22;10761;48.532;8.026;2022-07-12T14:48:59;31.90;90.10
21207;DHT22;10761;48.532;8.026;2022-07-12T14:51:24;31.60;90.20
21207;DHT22;10761;48.532;8.026;2022-07-12T14:53:50;31.40;90.80
21207;DHT22;10761;48.532;8.026;2022-07-12T14:56:18;31.40;89.90
21207;DHT22;10761;48.532;8.026;2022-07-12T14:58:44;31.50;90.50
21207;DHT22;10761;48.532;8.026;2022-07-12T15:01:09;31.40;90.50
21207;DHT22;10761;48.532;8.026;2022-07-12T15:03:35;31.20;91.90
21207;DHT22;10761;48.532;8.026;2022-07-12T15:06:01;31.40;91.40
21207;DHT22;10761;48.532;8.026;2022-07-12T15:08:26;31.70;89.90
21207;DHT22;10761;48.532;8.026;2022-07-12T15:10:52;32.00;89.90
21207;DHT22;10761;48.532;8.026;2022-07-12T15:13:18;32.20;90.40
21207;DHT22;10761;48.532;8.026;2022-07-12T15:15:43;32.00;89.00
21207;DHT22;10761;48.532;8.026;2022-07-12T15:18:10;31.50;90.10
21207;DHT22;10761;48.532;8.026;2022-07-12T15:20:35;31.40;88.80
21207;DHT22;10761;48.532;8.026;2022-07-12T15:23:01;31.50;89.30
21207;DHT22;10761;48.532;8.026;2022-07-12T15:25:28;31.60;88.90
21207;DHT22;10761;48.532;8.026;2022-07-12T15:27:54;31.70;87.80
21207;DHT22;10761;48.532;8.026;2022-07-12T15:30:20;32.10;89.80
21207;DHT22;10761;48.532;8.026;2022-07-12T15:32:45;32.50;86.80
21207;DHT22;10761;48.532;8.026;2022-07-12T15:35:11;32.80;86.10
21207;DHT22;10761;48.532;8.026;2022-07-12T15:37:38;32.80;85.90
21207;DHT22;10761;48.532;8.026;2022-07-12T15:40:04;32.80;87.30
21207;DHT22;10761;48.532;8.026;2022-07-12T15:42:29;32.60;87.20
21207;DHT22;10761;48.532;8.026;2022-07-12T15:44:55;32.90;90.00
21207;DHT22;10761;48.532;8.026;2022-07-12T15:47:21;33.10;84.50
21207;DHT22;10761;48.532;8.026;2022-07-12T15:49:46;33.00;85.00
21207;DHT22;10761;48.532;8.026;2022-07-12T15:52:12;33.00;83.50
21207;DHT22;10761;48.532;8.026;2022-07-12T15:54:56;33.30;84.50
21207;DHT22;10761;48.532;8.026;2022-07-12T15:57:22;33.10;82.80
21207;DHT22;10761;48.532;8.026;2022-07-12T15:59:48;32.90;84.80
21207;DHT22;10761;48.532;8.026;2022-07-12T16:02:14;32.70;85.30
21207;DHT22;10761;48.532;8.026;2022-07-12T16:04:40;32.30;85.90
21207;DHT22;10761;48.532;8.026;2022-07-12T16:07:05;32.20;84.00
21207;DHT22;10761;48.532;8.026;2022-07-12T16:09:31;32.20;85.30
21207;DHT22;10761;48.532;8.026;2022-07-12T16:11:57;31.60;86.20
21207;DHT22;10761;48.532;8.026;2022-07-12T16:14:23;31.10;88.20
21207;DHT22;10761;48.532;8.026;2022-07-12T16:16:50;31.00;87.90
21207;DHT22;10761;48.532;8.026;2022-07-12T16:19:16;31.20;89.90
21207;DHT22;10761;48.532;8.026;2022-07-12T16:21:42;31.40;87.10
21207;DHT22;10761;48.532;8.026;2022-07-12T16:24:07;31.80;86.80
21207;DHT22;10761;48.532;8.026;2022-07-12T16:26:33;31.90;85.40
21207;DHT22;10761;48.532;8.026;2022-07-12T16:28:59;32.00;85.40
21207;DHT22;10761;48.532;8.026;2022-07-12T16:31:25;31.80;86.80
21207;DHT22;10761;48.532;8.026;2022-07-12T16:33:50;31.70;85.10
21207;DHT22;10761;48.532;8.026;2022-07-12T16:36:16;31.50;85.80